Time,TemperatureF,DewpointF,PressureIn,WindDirection,WindDirectionDegrees,WindSpeedMPH,WindSpeedGustMPH,Humidity,HourlyPrecipIn,Conditions,Clouds,dailyrainin,SoftwareType,DateUTC
2013-07-30 00:00:00,66.4,61.1,29.96,SE,135,0.6,5.0,83,0.00,,FEW027,0.00,VWS V13.01,2013-07-29 14:00:00,
2013-07-30 00:15:00,65.7,61.1,29.95,SE,135,0.6,3.8,85,0.00,,FEW027,0.00,VWS V13.01,2013-07-29 14:15:00,
2013-07-30 00:30:00,65.6,60.6,29.95,SE,135,1.9,3.8,84,0.00,,FEW027,0.00,VWS V13.01,2013-07-29 14:30:00,
2013-07-30 00:45:00,65.8,60.8,29.95,SE,135,1.9,2.5,84,0.00,,FEW027,0.00,VWS V13.01,2013-07-29 14:45:00,
2013-07-30 01:00:00,65.1,60.5,29.95,SE,135,0.6,1.3,85,0.00,,FEW027,0.00,VWS V13.01,2013-07-29 15:00:00,
2013-07-30 01:15:00,64.8,60.2,29.94,SE,135,0.6,1.3,85,0.00,,FEW027,0.00,VWS V13.01,2013-07-29 15:15:00,
2013-07-30 01:30:00,64.5,60.2,29.94,SE,135,0.6,1.3,86,0.00,,FEW027,0.00,VWS V13.01,2013-07-29 15:30:00,
2013-07-30 01:45:00,64.2,60.3,29.94,SE,135,0.6,1.3,87,0.00,,FEW027,0.00,VWS V13.01,2013-07-29 15:45:00,
2013-07-30 02:00:00,64.7,60.4,29.94,SE,135,0.6,2.5,86,0.00,,FEW027,0.00,VWS V13.01,2013-07-29 16:00:00,
2013-07-30 02:15:00,65.2,60.9,29.94,SE,135,0.6,1.3,86,0.00,,FEW027,0.00,VWS V13.01,2013-07-29 16:15:00,
2013-07-30 02:30:00,65.8,61.2,29.93,SE,135,0.6,1.3,85,0.00,,FEW027,0.00,VWS V13.01,2013-07-29 16:30:00,
2013-07-30 02:45:00,66.3,61.3,29.93,SE,135,0.6,3.8,84,0.00,,FEW027,0.00,VWS V13.01,2013-07-29 16:45:00,
2013-07-30 03:00:00,66.4,61.4,29.93,SE,135,0.6,1.3,84,0.00,,FEW027,0.00,VWS V13.01,2013-07-29 17:00:00,
2013-07-30 03:15:00,66.1,61.1,29.92,SE,135,0.6,1.3,84,0.00,,FEW027,0.00,VWS V13.01,2013-07-29 17:15:00,
2013-07-30 03:30:00,65.6,61.3,29.93,SE,135,0.6,3.8,86,0.00,,FEW027,0.00,VWS V13.01,2013-07-29 17:30:00,
2013-07-30 03:45:00,65.6,61.3,29.92,SE,135,0.6,2.5,86,0.00,,FEW027,0.00,VWS V13.01,2013-07-29 17:45:00,
2013-07-30 04:00:00,65.6,61.3,29.92,SE,135,0.6,2.5,86,0.00,,FEW027,0.00,VWS V13.01,2013-07-29 18:00:00,
2013-07-30 04:15:00,65.4,61.4,29.92,SE,135,0.6,1.3,87,0.00,,FEW027,0.00,VWS V13.01,2013-07-29 18:15:00,
2013-07-30 04:30:00,65.4,61.4,29.92,SE,135,0.6,3.8,87,0.00,,FEW027,0.00,VWS V13.01,2013-07-29 18:30:00,
2013-07-30 04:45:00,65.9,61.6,29.92,SE,135,0.6,6.2,86,0.00,,FEW027,0.00,VWS V13.01,2013-07-29 18:45:00,
2013-07-30 05:00:00,66.5,62.2,29.91,SSE,158,0.6,3.8,86,0.00,,FEW027,0.00,VWS V13.01,2013-07-29 19:00:00,
2013-07-30 05:15:00,67.1,62.8,29.91,SE,135,0.6,2.5,86,0.00,,FEW027,0.00,VWS V13.01,2013-07-29 19:15:00,
2013-07-30 05:30:00,66.8,62.5,29.92,SE,135,0.6,2.5,86,0.00,,FEW027,0.00,VWS V13.01,2013-07-29 19:30:00,
2013-07-30 06:00:00,65.6,62.3,29.92,SE,135,0.6,1.2,89,0.00,,BKN037,0.00,VWS V13.01,2013-07-29 20:00:00,
2013-07-30 06:15:00,65.7,62.0,29.92,SE,135,0.6,1.3,88,0.00,,FEW027,0.00,VWS V13.01,2013-07-29 20:15:00,
2013-07-30 06:30:00,65.7,62.0,29.93,SE,135,0.6,3.8,88,0.00,,FEW027,0.00,VWS V13.01,2013-07-29 20:30:00,
2013-07-30 06:45:00,66.0,62.3,29.93,SE,135,1.9,5.0,88,0.00,,FEW027,0.00,VWS V13.01,2013-07-29 20:45:00,
2013-07-30 07:00:00,66.3,62.6,29.93,SE,135,0.6,6.2,88,0.00,,BKN037,0.00,VWS V13.01,2013-07-29 21:00:00,
2013-07-30 07:07:00,66.3,62.6,29.93,SE,135,0.6,6.2,88,0.00,,FEW027,0.00,VWS V13.01,2013-07-29 21:07:00,
2013-07-30 07:12:00,67.2,62.9,29.94,SSE,148,1.9,6.2,86,0.00,,FEW027,0.00,VWS V13.01,2013-07-29 21:12:00,
2013-07-30 07:15:00,67.3,63.0,29.94,SE,131,0.6,6.2,86,0.00,,BKN037,0.00,VWS V13.01,2013-07-29 21:15:00,
2013-07-30 07:17:00,67.4,63.1,29.94,SE,135,1.9,6.2,86,0.00,,BKN037,0.00,VWS V13.01,2013-07-29 21:17:00,
2013-07-30 07:22:00,67.5,63.2,29.94,SSE,147,1.9,6.2,86,0.00,,BKN037,0.00,VWS V13.01,2013-07-29 21:22:00,
2013-07-30 07:27:00,67.6,63.3,29.95,SE,138,0.6,6.2,86,0.00,,BKN037,0.00,VWS V13.01,2013-07-29 21:27:00,
2013-07-30 07:30:00,67.7,63.4,29.95,SE,141,1.9,6.2,86,0.00,,BKN037,0.00,VWS V13.01,2013-07-29 21:30:00,
2013-07-30 07:32:00,67.8,63.5,29.95,SE,137,1.9,6.2,86,0.00,,BKN037,0.00,VWS V13.01,2013-07-29 21:32:00,
2013-07-30 07:45:00,67.8,63.5,29.95,SE,135,1.9,3.8,86,0.00,,BKN037,0.00,VWS V13.01,2013-07-29 21:45:00,
2013-07-30 08:00:00,67.9,63.6,29.95,SE,135,1.9,3.8,86,0.00,,BKN037,0.00,VWS V13.01,2013-07-29 22:00:00,
2013-07-30 08:15:00,68.2,63.2,29.96,SE,135,1.9,7.5,84,0.00,,BKN037,0.00,VWS V13.01,2013-07-29 22:15:00,
2013-07-30 08:30:00,69.1,63.0,29.96,SE,135,3.1,10.0,81,0.00,,BKN037,0.00,VWS V13.01,2013-07-29 22:30:00,
2013-07-30 08:45:00,69.9,63.1,29.97,SE,135,1.9,6.2,79,0.00,,BKN037,0.00,VWS V13.01,2013-07-29 22:45:00,
2013-07-30 09:00:00,70.7,63.9,29.96,SSE,158,1.9,3.8,79,0.00,,BKN037,0.00,VWS V13.01,2013-07-29 23:00:00,
2013-07-30 09:15:00,71.4,63.5,29.97,SE,135,3.1,7.5,76,0.00,,BKN037,0.00,VWS V13.01,2013-07-29 23:15:00,
2013-07-30 09:30:00,71.7,63.4,29.97,SE,135,3.1,7.5,75,0.00,,BKN037,0.00,VWS V13.01,2013-07-29 23:30:00,
2013-07-30 09:45:00,73.0,63.8,29.96,SE,135,3.1,8.7,73,0.00,,BKN037,0.00,VWS V13.01,2013-07-29 23:45:00,
2013-07-30 10:00:00,74.4,63.6,29.96,SE,135,4.4,16.3,69,0.00,,BKN037,0.00,VWS V13.01,2013-07-30 00:00:00,
2013-07-30 10:15:00,74.0,63.6,29.95,SE,135,4.4,11.3,70,0.00,,BKN037,0.00,VWS V13.01,2013-07-30 00:15:00,
2013-07-30 10:30:00,74.3,63.1,29.95,SE,135,4.4,11.3,68,0.00,,BKN037,0.00,VWS V13.01,2013-07-30 00:30:00,
2013-07-30 10:45:00,75.2,63.5,29.94,SE,135,4.4,12.5,67,0.00,,BKN037,0.00,VWS V13.01,2013-07-30 00:45:00,
2013-07-30 11:00:00,75.6,63.0,29.94,SE,135,4.4,12.5,65,0.00,,BKN037,0.00,VWS V13.01,2013-07-30 01:00:00,
2013-07-30 11:15:00,76.8,62.3,29.93,SE,135,6.9,17.5,61,0.00,,BKN037,0.00,VWS V13.01,2013-07-30 01:15:00,
2013-07-30 11:30:00,78.0,63.0,29.93,SE,135,4.4,11.3,60,0.00,,BKN037,0.00,VWS V13.01,2013-07-30 01:30:00,
2013-07-30 11:45:00,78.2,63.7,29.91,SE,135,4.4,17.5,61,0.00,,BKN037,0.00,VWS V13.01,2013-07-30 01:45:00,
2013-07-30 12:00:00,78.6,63.1,29.91,SE,135,4.4,11.3,59,0.00,,BKN037,0.00,VWS V13.01,2013-07-30 02:00:00,
2013-07-30 12:15:00,78.6,64.0,29.90,SE,135,5.6,15.0,61,0.00,,BKN037,0.00,VWS V13.01,2013-07-30 02:15:00,
2013-07-30 12:30:00,78.2,63.2,29.89,SE,135,4.4,10.0,60,0.00,,BKN037,0.00,VWS V13.01,2013-07-30 02:30:00,
2013-07-30 12:45:00,79.3,62.8,29.88,SE,135,4.4,11.3,57,0.00,,BKN037,0.00,VWS V13.01,2013-07-30 02:45:00,
2013-07-30 13:00:00,79.7,63.1,29.87,SE,135,3.1,13.7,57,0.00,,BKN037,0.00,VWS V13.01,2013-07-30 03:00:00,
2013-07-30 13:15:00,79.4,64.3,29.87,ESE,112,3.1,10.0,60,0.00,,BKN037,0.00,VWS V13.01,2013-07-30 03:15:00,
2013-07-30 13:30:00,78.2,64.1,29.86,SE,135,4.4,13.7,62,0.00,,BKN037,0.00,VWS V13.01,2013-07-30 03:30:00,
2013-07-30 13:45:00,78.2,65.0,29.85,East,90,6.9,18.7,64,0.00,,BKN037,0.00,VWS V13.01,2013-07-30 03:45:00,
2013-07-30 14:00:00,77.4,64.7,29.85,East,90,9.4,18.7,65,0.00,,BKN037,0.00,VWS V13.01,2013-07-30 04:00:00,
2013-07-30 14:15:00,77.3,64.2,29.84,East,90,6.9,16.3,64,0.00,,BKN037,0.00,VWS V13.01,2013-07-30 04:15:00,
2013-07-30 14:30:00,77.1,65.3,29.84,East,90,8.1,16.3,67,0.00,,BKN037,0.00,VWS V13.01,2013-07-30 04:30:00,
2013-07-30 14:45:00,76.9,64.7,29.84,East,90,8.1,16.3,66,0.00,,BKN037,0.00,VWS V13.01,2013-07-30 04:45:00,
2013-07-30 15:00:00,77.0,63.5,29.83,ESE,112,5.6,13.7,63,0.00,,BKN037,0.00,VWS V13.01,2013-07-30 05:00:00,
2013-07-30 15:15:00,76.8,63.3,29.83,ESE,112,6.9,17.5,63,0.00,,BKN037,0.00,VWS V13.01,2013-07-30 05:15:00,
2013-07-30 15:30:00,76.6,63.5,29.83,SE,135,5.6,11.3,64,0.00,,BKN037,0.00,VWS V13.01,2013-07-30 05:30:00,
2013-07-30 15:45:00,76.3,63.7,29.83,ESE,112,6.9,15.0,65,0.00,,BKN037,0.00,VWS V13.01,2013-07-30 05:45:00,
2013-07-30 16:00:00,75.8,62.8,29.83,ESE,112,5.6,11.3,64,0.00,,BKN037,0.00,VWS V13.01,2013-07-30 06:00:00,
2013-07-30 16:15:00,76.2,61.8,29.83,ESE,112,4.4,10.0,61,0.00,,BKN037,0.00,VWS V13.01,2013-07-30 06:15:00,
2013-07-30 16:30:00,76.8,61.4,29.83,SE,135,3.1,8.7,59,0.00,,BKN037,0.00,VWS V13.01,2013-07-30 06:30:00,
2013-07-30 16:45:00,76.8,61.9,29.83,SE,135,3.1,8.7,60,0.00,,BKN037,0.00,VWS V13.01,2013-07-30 06:45:00,
2013-07-30 17:00:00,75.7,63.1,29.84,ESE,112,4.4,12.5,65,0.00,,BKN037,0.00,VWS V13.01,2013-07-30 07:00:00,
2013-07-30 17:15:00,74.7,61.3,29.84,ESE,112,1.9,10.0,63,0.00,,BKN037,0.00,VWS V13.01,2013-07-30 07:15:00,
2013-07-30 17:30:00,75.1,60.8,29.84,SE,135,1.9,6.2,61,0.00,,BKN037,0.00,VWS V13.01,2013-07-30 07:30:00,
2013-07-30 17:45:00,74.4,62.3,29.85,SE,135,0.6,2.5,66,0.00,,BKN037,0.00,VWS V13.01,2013-07-30 07:45:00,
2013-07-30 18:00:00,72.5,63.0,29.85,SSW,202,0.6,2.5,72,0.00,,BKN037,0.00,VWS V13.01,2013-07-30 08:00:00,
2013-07-30 18:15:00,71.1,62.0,29.85,South,180,0.6,3.8,73,0.00,,BKN037,0.00,VWS V13.01,2013-07-30 08:15:00,
2013-07-30 18:30:00,70.3,62.4,29.86,SSE,158,0.6,1.3,76,0.00,,BKN037,0.00,VWS V13.01,2013-07-30 08:30:00,
2013-07-30 18:45:00,69.3,62.5,29.86,South,180,0.6,2.5,79,0.00,,BKN037,0.00,VWS V13.01,2013-07-30 08:45:00,
2013-07-30 19:00:00,68.0,62.3,29.87,South,180,0.6,1.3,82,0.00,,BKN037,0.00,VWS V13.01,2013-07-30 09:00:00,
2013-07-30 19:15:00,67.5,61.8,29.87,SSE,158,0.6,1.3,82,0.00,,BKN037,0.00,VWS V13.01,2013-07-30 09:15:00,
2013-07-30 19:30:00,67.7,61.7,29.88,SSE,158,0.6,0.0,81,0.00,,BKN037,0.00,VWS V13.01,2013-07-30 09:30:00,
2013-07-30 19:45:00,67.9,61.9,29.88,SSE,158,0.6,0.0,81,0.00,,BKN037,0.00,VWS V13.01,2013-07-30 09:45:00,
2013-07-30 20:00:00,67.0,62.0,29.89,SSE,158,0.6,0.0,84,0.00,,BKN037,0.00,VWS V13.01,2013-07-30 10:00:00,
2013-07-30 20:15:00,65.9,61.6,29.89,SSE,158,0.6,0.0,86,0.00,,BKN037,0.00,VWS V13.01,2013-07-30 10:15:00,
2013-07-30 20:30:00,64.9,60.9,29.90,SSE,158,0.6,0.0,87,0.00,,BKN037,0.00,VWS V13.01,2013-07-30 10:30:00,
2013-07-30 20:45:00,64.3,61.0,29.90,SSE,158,0.6,0.0,89,0.00,,BKN037,0.00,VWS V13.01,2013-07-30 10:45:00,
2013-07-30 21:00:00,63.9,60.6,29.90,SSE,158,0.6,0.0,89,0.00,,BKN037,0.00,VWS V13.01,2013-07-30 11:00:00,
2013-07-30 21:15:00,63.6,60.3,29.90,SSE,158,0.6,0.0,89,0.00,,BKN037,0.00,VWS V13.01,2013-07-30 11:15:00,
2013-07-30 21:30:00,63.3,60.0,29.90,SSE,158,0.6,0.0,89,0.00,,BKN037,0.00,VWS V13.01,2013-07-30 11:30:00,
2013-07-30 21:45:00,64.4,59.5,29.91,SSE,158,0.6,0.0,84,0.00,,BKN037,0.00,VWS V13.01,2013-07-30 11:45:00,
2013-07-30 22:00:00,65.0,59.4,29.91,South,180,0.6,2.5,82,0.00,,BKN037,0.00,VWS V13.01,2013-07-30 12:00:00,
2013-07-30 22:15:00,64.5,59.2,29.90,South,180,0.6,1.3,83,0.00,,BKN037,0.00,VWS V13.01,2013-07-30 12:15:00,
2013-07-30 22:30:00,63.6,58.7,29.91,South,180,0.6,0.0,84,0.00,,BKN037,0.00,VWS V13.01,2013-07-30 12:30:00,
2013-07-30 22:45:00,62.6,58.7,29.91,South,180,0.6,0.0,87,0.00,,BKN037,0.00,VWS V13.01,2013-07-30 12:45:00,
2013-07-30 23:00:00,62.1,58.5,29.91,South,180,0.6,0.0,88,0.00,,BKN037,0.00,VWS V13.01,2013-07-30 13:00:00,
2013-07-30 23:15:00,62.3,58.4,29.91,South,180,0.6,0.0,87,0.00,,BKN037,0.00,VWS V13.01,2013-07-30 13:15:00,
2013-07-30 23:30:00,62.0,58.4,29.91,South,180,0.6,0.0,88,0.00,,BKN037,0.00,VWS V13.01,2013-07-30 13:30:00,
2013-07-30 23:45:00,61.5,58.2,29.91,South,180,0.6,0.0,89,0.00,,BKN037,0.00,VWS V13.01,2013-07-30 13:45:00,